Time;durP1;ratioP1;P1;durP2;ratioP2;P2;SDS_P1;SDS_P2;PMS_P1;PMS_P2;Temp;Humidity;BMP_temperature;BMP_pressure;BME280_temperature;BME280_humidity;BME280_pressure;Samples;Min_cycle;Max_cycle;Signal;HPM_P1;HPM_P2
2021/05/18 00:01:58;;;;;;;57.20;2.20;;;10.10;1.00;;;;;;5132263;27;20556;-67
2021/05/18 00:04:24;;;;;;;57.07;2.30;;;10.10;1.00;;;;;;5131276;27;20570;-67
2021/05/18 00:06:51;;;;;;;57.20;2.30;;;10.10;1.00;;;;;;5129708;27;20609;-67
2021/05/18 00:12:01;;;;;;;56.97;2.23;;;10.20;1.00;;;;;;5132134;27;20951;-67
2021/05/18 00:14:28;;;;;;;57.27;2.20;;;10.10;1.00;;;;;;5132107;27;20969;-67
2021/05/18 00:16:56;;;;;;;57.03;2.27;;;10.20;1.00;;;;;;5132364;27;20805;-66
2021/05/18 00:19:22;;;;;;;57.13;2.30;;;10.20;1.00;;;;;;5132424;27;20461;-66
2021/05/18 00:21:49;;;;;;;57.03;2.33;;;10.20;1.00;;;;;;5132102;27;20554;-66
2021/05/18 00:24:15;;;;;;;56.97;2.30;;;10.20;1.00;;;;;;5132199;27;20499;-66
2021/05/18 00:26:42;;;;;;;56.93;2.33;;;10.20;1.00;;;;;;5132321;27;20830;-68
2021/05/18 00:29:09;;;;;;;57.07;2.20;;;10.10;1.00;;;;;;5132185;27;20526;-68
2021/05/18 00:31:35;;;;;;;57.37;2.30;;;10.00;1.00;;;;;;5132203;27;20459;-68
2021/05/18 00:34:03;;;;;;;57.17;2.20;;;9.90;1.00;;;;;;5131776;27;20446;-65
2021/05/18 00:36:29;;;;;;;57.03;2.23;;;9.80;1.00;;;;;;5128384;27;20505;-67
2021/05/18 00:38:56;;;;;;;57.33;2.30;;;9.70;1.00;;;;;;5132053;27;20445;-68
2021/05/18 00:41:22;;;;;;;57.30;2.60;;;9.70;1.00;;;;;;5132245;27;20495;-68
2021/05/18 00:43:48;;;;;;;57.17;2.40;;;9.70;1.00;;;;;;5131995;27;20571;-68
2021/05/18 00:46:15;;;;;;;56.97;2.40;;;9.60;1.00;;;;;;5136459;27;20472;-65
2021/05/18 00:48:56;;;;;;;57.30;2.30;;;9.60;1.00;;;;;;5136015;27;20447;-66
2021/05/18 00:51:24;;;;;;;57.30;2.47;;;9.60;1.00;;;;;;5136187;27;20459;-66
2021/05/18 00:53:50;;;;;;;57.37;2.43;;;9.50;1.00;;;;;;5135590;27;20482;-66
2021/05/18 00:56:31;;;;;;;57.33;2.30;;;9.50;1.00;;;;;;5136120;27;20535;-66
2021/05/18 00:58:59;;;;;;;57.23;2.50;;;9.50;1.00;;;;;;5135768;27;20447;-66
2021/05/18 01:01:26;;;;;;;57.40;2.50;;;9.50;1.00;;;;;;5135474;27;20524;-66
2021/05/18 01:03:54;;;;;;;57.13;2.27;;;9.50;1.00;;;;;;5135329;27;20514;-66
2021/05/18 01:06:28;;;;;;;57.30;2.50;;;9.40;1.00;;;;;;5135724;27;20446;-66
2021/05/18 01:08:56;;;;;;;57.10;2.23;;;9.40;1.00;;;;;;5133053;27;20452;-66
2021/05/18 01:11:24;;;;;;;57.23;2.50;;;9.40;1.00;;;;;;5135510;27;20499;-66
2021/05/18 01:13:55;;;;;;;57.10;2.30;;;9.40;1.00;;;;;;5135177;27;20471;-66
2021/05/18 01:16:22;;;;;;;57.17;2.30;;;9.30;1.00;;;;;;5135894;27;20451;-66
2021/05/18 01:18:48;;;;;;;57.13;2.40;;;9.30;1.00;;;;;;5135673;27;20458;-66
2021/05/18 01:21:16;;;;;;;57.27;2.30;;;9.30;1.00;;;;;;5135714;27;20503;-66
2021/05/18 01:23:43;;;;;;;57.37;2.30;;;9.30;1.00;;;;;;5134849;27;20521;-66
2021/05/18 01:26:11;;;;;;;57.30;2.27;;;9.30;1.00;;;;;;5135306;27;20478;-66
2021/05/18 01:28:38;;;;;;;56.93;2.33;;;9.30;1.00;;;;;;5135002;27;20444;-66
2021/05/18 01:31:06;;;;;;;57.17;2.23;;;9.30;1.00;;;;;;5134954;27;20551;-66
2021/05/18 01:33:32;;;;;;;57.27;2.30;;;9.30;1.00;;;;;;5134838;27;20484;-66
2021/05/18 01:36:00;;;;;;;57.30;2.43;;;9.30;1.00;;;;;;5135083;27;20540;-66
2021/05/18 01:38:34;;;;;;;57.30;2.37;;;9.30;1.00;;;;;;5128029;27;20915;-65
2021/05/18 01:43:50;;;;;;;57.07;2.30;;;9.40;1.00;;;;;;5134351;27;20491;-66
2021/05/18 01:46:16;;;;;;;57.13;2.13;;;9.40;1.00;;;;;;5135227;27;20501;-66
2021/05/18 01:48:47;;;;;;;57.40;2.30;;;9.40;1.00;;;;;;5135092;27;20813;-66
2021/05/18 01:51:14;;;;;;;57.17;2.37;;;9.40;1.00;;;;;;5135056;27;20898;-67
2021/05/18 01:53:42;;;;;;;57.23;2.40;;;9.40;1.00;;;;;;5134291;27;20556;-66
2021/05/18 01:56:19;;;;;;;57.20;2.40;;;9.40;1.00;;;;;;5134489;27;20450;-67
2021/05/18 01:58:46;;;;;;;57.07;2.37;;;9.40;1.00;;;;;;5134969;27;20561;-66
2021/05/18 02:01:12;;;;;;;57.13;2.40;;;9.40;1.00;;;;;;5134618;27;20481;-66
2021/05/18 02:03:38;;;;;;;57.30;2.30;;;9.40;1.00;;;;;;5133993;27;20486;-67
2021/05/18 02:06:05;;;;;;;57.20;2.50;;;9.40;1.00;;;;;;5134448;27;20440;-67
2021/05/18 02:08:32;;;;;;;57.07;2.40;;;9.40;1.00;;;;;;5133727;27;20538;-67
2021/05/18 02:10:59;;;;;;;57.20;2.40;;;9.40;1.00;;;;;;5131631;27;20903;-66
2021/05/18 02:13:25;;;;;;;57.13;2.40;;;9.40;1.00;;;;;;5133906;27;20551;-66
2021/05/18 02:15:56;;;;;;;57.23;2.40;;;9.40;1.00;;;;;;5134131;27;20593;-66
2021/05/18 02:26:34;;;;;;;57.43;2.43;;;9.30;1.00;;;;;;5134137;27;20472;-66
2021/05/18 02:29:00;;;;;;;57.37;2.53;;;9.30;1.00;;;;;;5133980;27;20837;-66
2021/05/18 02:31:27;;;;;;;57.40;2.50;;;9.30;1.00;;;;;;5134081;27;20467;-66
2021/05/18 02:33:53;;;;;;;57.20;2.40;;;9.30;1.00;;;;;;5133395;27;20452;-66
2021/05/18 02:36:23;;;;;;;57.30;2.40;;;9.30;1.00;;;;;;5134066;27;20551;-66
2021/05/18 02:38:49;;;;;;;57.07;2.43;;;9.30;1.00;;;;;;5133814;27;20495;-66
2021/05/18 02:41:16;;;;;;;57.27;2.40;;;9.20;1.00;;;;;;5120184;27;20469;-66
2021/05/18 02:43:46;;;;;;;57.47;2.40;;;9.20;1.00;;;;;;5125274;27;20497;-66
2021/05/18 02:49:05;;;;;;;57.27;2.40;;;9.20;1.00;;;;;;5133864;27;20459;-66
2021/05/18 02:49:09;;;;;;;57.27;2.30;;;9.20;1.00;;;;;;5133585;27;20443;-66
2021/05/18 02:51:37;;;;;;;57.30;2.30;;;9.20;1.00;;;;;;5133569;27;20483;-66
2021/05/18 02:54:05;;;;;;;57.33;2.33;;;9.20;1.00;;;;;;5132935;27;20527;-66
2021/05/18 02:56:36;;;;;;;56.97;2.27;;;9.20;1.00;;;;;;5133705;27;20445;-66
2021/05/18 02:59:11;;;;;;;57.60;2.60;;;9.20;1.00;;;;;;5133617;27;20451;-66
2021/05/18 03:01:38;;;;;;;57.37;2.40;;;9.20;1.00;;;;;;5133367;27;20475;-66
2021/05/18 03:04:05;;;;;;;57.37;2.47;;;9.20;1.00;;;;;;5132841;27;21074;-66
2021/05/18 03:06:32;;;;;;;57.53;2.37;;;9.30;1.00;;;;;;5132919;27;20444;-66
2021/05/18 03:08:59;;;;;;;57.40;2.70;;;9.30;1.00;;;;;;5133214;27;20458;-66
2021/05/18 03:11:25;;;;;;;57.47;2.33;;;9.30;1.00;;;;;;5131000;27;20511;-65
2021/05/18 03:13:54;;;;;;;57.40;2.50;;;9.30;1.00;;;;;;5132499;27;20444;-66
2021/05/18 03:16:21;;;;;;;57.40;2.40;;;9.20;1.00;;;;;;5133151;27;20496;-65
2021/05/18 03:18:47;;;;;;;57.17;2.40;;;9.20;1.00;;;;;;5132976;27;20449;-66
2021/05/18 03:21:14;;;;;;;57.20;2.20;;;9.20;1.00;;;;;;5133287;27;21034;-65
2021/05/18 03:23:40;;;;;;;57.10;2.23;;;9.20;1.00;;;;;;5132551;27;20515;-66
2021/05/18 03:26:07;;;;;;;57.30;2.40;;;9.30;1.00;;;;;;5132857;27;20493;-65
2021/05/18 03:28:33;;;;;;;57.30;2.40;;;9.20;1.00;;;;;;5132879;27;20455;-66
2021/05/18 03:31:12;;;;;;;57.23;2.40;;;9.30;1.00;;;;;;5132991;27;20517;-66
2021/05/18 03:36:35;;;;;;;57.33;2.33;;;9.30;1.00;;;;;;5132567;27;20477;-66
2021/05/18 03:39:02;;;;;;;57.37;2.23;;;9.30;1.00;;;;;;5132582;27;20526;-66
2021/05/18 03:41:31;;;;;;;57.13;2.20;;;9.30;1.00;;;;;;5132673;27;20472;-66
2021/05/18 03:44:02;;;;;;;57.37;2.30;;;9.30;1.00;;;;;;5128618;27;20484;-65
2021/05/18 04:03:00;;;;;;;57.03;2.40;;;9.40;1.00;;;;;;5132083;27;20559;-66
2021/05/18 04:11:26;;;;;;;57.37;2.30;;;9.40;1.00;;;;;;5132368;28;20439;-66
2021/05/18 04:16:55;;;;;;;57.13;2.40;;;9.40;1.00;;;;;;5132045;28;20424;-65
2021/05/18 04:19:25;;;;;;;57.17;2.30;;;9.40;1.00;;;;;;5135308;27;20546;-66
2021/05/18 04:49:47;;;;;;;57.13;2.47;;;9.90;1.00;;;;;;5136446;27;20424;-66
2021/05/18 04:52:16;;;;;;;57.20;2.60;;;9.90;1.00;;;;;;5119906;27;20467;-66
2021/05/18 04:55:25;;;;;;;57.40;2.60;;;9.90;1.00;;;;;;5135517;27;20432;-66
2021/05/18 05:00:45;;;;;;;56.97;2.30;;;9.90;1.00;;;;;;5135632;27;20444;-65
2021/05/18 05:06:23;;;;;;;57.23;2.40;;;9.90;1.00;;;;;;5135972;27;20456;-65
2021/05/18 05:08:55;;;;;;;57.17;2.33;;;9.90;1.00;;;;;;5135547;27;20952;-65
2021/05/18 05:14:18;;;;;;;56.87;2.30;;;9.90;1.00;;;;;;5135192;27;20954;-66
2021/05/18 05:16:44;;;;;;;57.60;2.50;;;9.90;1.00;;;;;;5135977;27;20953;-66
2021/05/18 05:19:11;;;;;;;57.27;2.40;;;9.90;1.00;;;;;;5135522;27;20922;-65
2021/05/18 05:21:37;;;;;;;57.03;2.30;;;10.00;1.00;;;;;;5133842;27;20550;-66
2021/05/18 05:24:05;;;;;;;57.20;2.60;;;10.10;1.00;;;;;;5134212;27;20483;-65
2021/05/18 05:26:35;;;;;;;57.30;2.70;;;10.10;1.00;;;;;;5135749;27;20504;-65
2021/05/18 05:29:01;;;;;;;57.97;2.90;;;10.10;1.00;;;;;;5135618;27;20541;-65
2021/05/18 05:31:27;;;;;;;57.10;2.33;;;10.20;1.00;;;;;;5134813;27;20460;-65
2021/05/18 05:33:54;;;;;;;57.13;2.37;;;10.30;1.00;;;;;;5134941;27;20531;-65
2021/05/18 05:36:20;;;;;;;57.17;2.57;;;10.40;1.00;;;;;;5135346;27;20440;-64
2021/05/18 05:38:48;;;;;;;57.20;2.40;;;10.40;1.00;;;;;;5135581;27;20468;-65
2021/05/18 05:41:14;;;;;;;58.37;2.67;;;10.50;1.00;;;;;;5135554;27;20613;-65
2021/05/18 05:43:42;;;;;;;57.27;2.57;;;10.40;1.00;;;;;;5134956;27;20482;-65
2021/05/18 05:46:08;;;;;;;57.00;2.50;;;10.40;1.00;;;;;;5135244;27;20452;-66
2021/05/18 05:48:34;;;;;;;57.10;2.50;;;10.40;1.00;;;;;;5135653;27;20476;-66
2021/05/18 05:51:02;;;;;;;57.17;2.50;;;10.30;1.00;;;;;;5134913;27;20510;-66
2021/05/18 05:53:28;;;;;;;56.97;2.50;;;10.30;1.00;;;;;;5134914;27;20439;-67
2021/05/18 05:55:55;;;;;;;57.13;2.50;;;10.20;1.00;;;;;;5135093;27;20512;-67
2021/05/18 05:58:21;;;;;;;56.97;2.40;;;10.10;1.00;;;;;;5135080;27;20452;-66
2021/05/18 06:00:48;;;;;;;57.20;2.50;;;10.00;1.00;;;;;;5134892;27;20540;-66
2021/05/18 06:03:15;;;;;;;57.10;2.50;;;10.00;1.00;;;;;;5134339;27;20532;-66
2021/05/18 06:05:41;;;;;;;57.47;2.70;;;9.90;1.00;;;;;;5134302;27;20535;-66
2021/05/18 06:08:07;;;;;;;57.30;2.60;;;9.90;1.00;;;;;;5134708;27;20445;-66
2021/05/18 06:10:36;;;;;;;57.07;2.10;;;10.00;1.00;;;;;;5134883;27;20500;-66
2021/05/18 06:43:14;;;;;;;57.60;2.60;;;10.10;1.00;;;;;;5121272;27;20421;-68
2021/05/18 06:45:58;;;;;;;57.53;2.90;;;10.20;1.00;;;;;;5133869;27;20463;-68
2021/05/18 06:48:24;;;;;;;57.10;2.20;;;10.30;1.00;;;;;;5133893;27;20944;-68
2021/05/18 06:50:51;;;;;;;57.10;2.27;;;10.30;1.00;;;;;;5134108;27;20468;-68
2021/05/18 06:53:18;;;;;;;57.07;2.13;;;10.40;1.00;;;;;;5133521;27;20492;-68
2021/05/18 06:55:45;;;;;;;57.07;2.43;;;10.50;1.00;;;;;;5133309;27;20535;-68
2021/05/18 06:58:14;;;;;;;57.00;2.37;;;10.60;1.00;;;;;;5133744;27;21000;-68
2021/05/18 07:00:42;;;;;;;57.07;2.43;;;10.90;1.00;;;;;;5133472;27;20448;-68
2021/05/18 07:03:11;;;;;;;57.00;2.37;;;11.20;3.50;;;;;;5133327;27;20957;-68
2021/05/18 07:05:42;;;;;;;57.10;2.30;;;11.50;4.50;;;;;;5133326;27;20483;-67
2021/05/18 07:08:53;;;;;;;57.07;2.40;;;11.60;1.10;;;;;;5133537;27;20951;-68
2021/05/18 07:11:09;;;;;;;57.60;2.50;;;11.60;1.00;;;;;;5133314;27;20812;-68
2021/05/18 07:13:35;;;;;;;56.87;2.40;;;11.80;1.00;;;;;;5132888;27;20516;-67
2021/05/18 07:16:01;;;;;;;56.93;2.50;;;11.90;1.00;;;;;;5133517;27;20450;-67
2021/05/18 07:18:28;;;;;;;57.00;2.20;;;11.80;1.00;;;;;;5133347;27;20471;-67
2021/05/18 07:20:54;;;;;;;57.17;2.20;;;11.70;1.00;;;;;;5133390;27;20504;-67
2021/05/18 07:23:24;;;;;;;57.30;2.43;;;11.50;1.00;;;;;;5133110;27;20563;-67
2021/05/18 07:25:51;;;;;;;57.30;2.37;;;11.50;1.00;;;;;;5132988;27;21035;-67
2021/05/18 07:28:19;;;;;;;56.97;2.40;;;11.40;1.00;;;;;;5133222;27;20493;-67
2021/05/18 07:30:46;;;;;;;57.17;2.27;;;11.50;1.00;;;;;;5133248;27;20544;-67
2021/05/18 07:33:13;;;;;;;57.00;2.30;;;11.50;1.00;;;;;;5132776;27;20577;-67
2021/05/18 07:35:41;;;;;;;57.20;2.23;;;11.60;1.00;;;;;;5133053;27;20476;-67
2021/05/18 07:38:08;;;;;;;57.60;3.03;;;11.80;1.00;;;;;;5132930;27;20447;-67
2021/05/18 07:40:35;;;;;;;57.03;2.37;;;12.00;1.00;;;;;;5132965;27;20892;-67
2021/05/18 07:43:04;;;;;;;57.03;2.27;;;12.20;1.00;;;;;;5132703;27;20451;-67
2021/05/18 07:45:32;;;;;;;56.87;2.30;;;12.40;1.00;;;;;;5132606;27;20843;-67
2021/05/18 07:48:03;;;;;;;56.97;2.30;;;12.50;1.00;;;;;;5133165;27;20440;-67
2021/05/18 07:50:41;;;;;;;57.03;2.33;;;12.50;1.00;;;;;;5133129;27;20539;-67
2021/05/18 08:06:46;;;;;;;57.03;2.33;;;12.10;1.00;;;;;;5132746;27;20420;-66
2021/05/18 08:09:12;;;;;;;57.07;2.30;;;12.10;1.00;;;;;;5132513;27;20477;-66
2021/05/18 08:11:39;;;;;;;57.00;2.40;;;12.20;1.00;;;;;;5132558;27;20499;-66
2021/05/18 08:14:06;;;;;;;57.20;2.20;;;12.30;1.00;;;;;;5132070;27;20483;-66
2021/05/18 08:16:58;;;;;;;57.03;2.23;;;12.30;1.00;;;;;;5132582;27;20472;-67
2021/05/18 10:35:39;;;;;;;57.40;2.47;;;18.20;1.00;;;;;;5133762;27;20436;-68
2021/05/18 10:38:07;;;;;;;57.00;2.10;;;18.60;1.00;;;;;;5134005;27;20214;-69
2021/05/18 10:40:36;;;;;;;57.03;2.23;;;18.00;1.00;;;;;;5133782;27;20547;-69
2021/05/18 10:43:08;;;;;;;57.10;2.10;;;16.90;1.00;;;;;;5133937;27;20517;-68
2021/05/18 10:46:02;;;;;;;57.10;1.90;;;16.40;1.00;;;;;;5133498;27;20515;-68
2021/05/18 10:49:06;;;;;;;56.93;2.00;;;17.40;1.00;;;;;;5133722;27;20490;-69
2021/05/18 10:51:50;;;;;;;57.30;2.30;;;;;;;;;;5133841;27;20544;-68
2021/05/18 10:54:23;;;;;;;56.77;2.20;;;19.60;1.00;;;;;;5123072;27;20522;-68
2021/05/18 10:57:05;;;;;;;56.83;2.30;;;19.50;1.00;;;;;;5133573;27;20818;-67
2021/05/18 10:59:34;;;;;;;57.13;2.20;;;19.00;1.00;;;;;;5132911;27;20475;-68
2021/05/18 11:02:03;;;;;;;56.80;2.10;;;17.90;1.00;;;;;;5133486;27;20863;-67
2021/05/18 11:04:31;;;;;;;56.87;2.10;;;17.20;1.00;;;;;;5130051;27;21071;-67
2021/05/18 11:06:59;;;;;;;56.93;2.00;;;17.00;1.00;;;;;;5133357;27;20662;-67
2021/05/18 11:09:26;;;;;;;57.20;2.10;;;18.10;1.00;;;;;;5133379;27;20870;-67
2021/05/18 11:11:59;;;;;;;57.10;2.27;;;18.50;1.00;;;;;;5132693;27;20466;-67
2021/05/18 11:14:41;;;;;;;57.00;2.20;;;18.60;1.00;;;;;;5133020;27;20477;-67
2021/05/18 11:17:19;;;;;;;57.07;2.00;;;18.70;1.00;;;;;;5132990;27;20442;-67
2021/05/18 11:19:51;;;;;;;57.10;2.13;;;18.50;1.00;;;;;;5132960;27;20450;-68
2021/05/18 11:23:18;;;;;;;56.77;1.97;;;18.80;1.00;;;;;;5132440;27;20474;-67
2021/05/18 11:25:05;;;;;;;56.57;2.00;;;18.30;1.00;;;;;;5132518;27;20903;-68
2021/05/18 11:27:32;;;;;;;56.90;2.00;;;17.30;1.00;;;;;;5132555;27;20438;-67
2021/05/18 11:29:59;;;;;;;56.87;2.17;;;16.50;1.00;;;;;;5133134;27;20491;-67
2021/05/18 11:32:25;;;;;;;57.03;2.30;;;17.10;1.00;;;;;;5132433;27;20496;-67
2021/05/18 11:34:54;;;;;;;56.87;2.13;;;18.40;1.00;;;;;;5129829;27;20539;-67
2021/05/18 11:37:20;;;;;;;56.93;2.00;;;19.70;1.00;;;;;;5132152;27;20454;-67
2021/05/18 11:39:46;;;;;;;56.77;2.00;;;19.60;1.00;;;;;;5132389;27;20527;-67
2021/05/18 11:42:27;;;;;;;56.90;2.00;;;18.80;1.00;;;;;;5132496;27;20550;-69
2021/05/18 11:45:06;;;;;;;56.57;2.00;;;17.50;1.00;;;;;;5132166;27;20481;-67
2021/05/18 11:47:33;;;;;;;56.97;2.27;;;16.50;1.00;;;;;;5132761;27;20942;-67
2021/05/18 11:49:59;;;;;;;56.77;2.00;;;16.40;1.00;;;;;;5132565;27;21004;-69
2021/05/18 11:52:25;;;;;;;56.67;1.90;;;17.60;1.00;;;;;;5132447;27;20984;-68
2021/05/18 11:54:51;;;;;;;56.77;1.90;;;18.20;1.00;;;;;;5132755;27;20471;-67
2021/05/18 11:57:18;;;;;;;56.47;2.20;;;19.10;1.00;;;;;;5132586;27;20539;-66
2021/05/18 11:59:44;;;;;;;56.67;2.00;;;20.20;1.00;;;;;;5132473;27;20455;-69
2021/05/18 12:02:11;;;;;;;56.67;2.20;;;20.00;1.00;;;;;;5132116;27;20468;-67
2021/05/18 12:04:40;;;;;;;56.70;2.10;;;18.90;1.00;;;;;;5132401;27;20573;-67
2021/05/18 12:07:08;;;;;;;56.77;2.00;;;17.50;1.00;;;;;;5132581;27;20544;-67
2021/05/18 12:09:36;;;;;;;56.77;2.10;;;16.20;1.00;;;;;;5132500;27;20944;-67
2021/05/18 12:12:05;;;;;;;56.40;2.10;;;15.30;1.00;;;;;;5131908;27;20468;-67
2021/05/18 12:14:32;;;;;;;56.97;2.13;;;14.60;1.00;;;;;;5132092;27;20532;-68
2021/05/18 12:16:59;;;;;;;56.93;2.00;;;14.40;1.00;;;;;;5132810;27;20454;-67
2021/05/18 12:19:26;;;;;;;56.97;2.00;;;14.90;1.00;;;;;;5132399;27;20538;-67
2021/05/18 12:21:54;;;;;;;56.97;2.13;;;15.60;1.00;;;;;;5132133;27;20553;-67
2021/05/18 12:24:24;;;;;;;56.83;2.07;;;15.70;1.00;;;;;;5132292;27;20607;-67
2021/05/18 12:26:53;;;;;;;56.67;2.27;;;16.10;1.00;;;;;;5132511;27;20453;-69
2021/05/18 12:29:31;;;;;;;57.20;2.27;;;17.50;1.00;;;;;;5132731;27;20524;-66
2021/05/18 12:32:16;;;;;;;56.87;1.87;;;18.20;1.00;;;;;;5131934;27;20489;-66
2021/05/18 12:34:44;;;;;;;56.83;1.87;;;18.00;1.00;;;;;;5132168;27;20437;-67
2021/05/18 12:37:12;;;;;;;56.73;1.90;;;18.20;1.00;;;;;;5132287;27;20449;-68
2021/05/18 12:39:42;;;;;;;56.77;2.07;;;19.20;1.00;;;;;;5134192;27;20455;-67
2021/05/18 12:42:12;;;;;;;56.63;2.20;;;20.40;1.00;;;;;;5135834;27;21002;-66
2021/05/18 12:44:51;;;;;;;56.57;2.10;;;21.40;1.00;;;;;;5136207;27;20482;-66
2021/05/18 12:47:26;;;;;;;57.27;2.40;;;22.00;1.00;;;;;;5136537;27;20444;-66
2021/05/18 12:49:53;;;;;;;57.07;2.20;;;22.70;1.00;;;;;;5136218;27;20487;-67
2021/05/18 12:52:20;;;;;;;56.93;2.00;;;23.90;1.00;;;;;;5135887;27;20460;-67
2021/05/18 12:54:51;;;;;;;56.90;1.90;;;24.70;1.00;;;;;;5135962;27;20921;-68
2021/05/18 12:57:19;;;;;;;56.77;1.87;;;25.40;1.00;;;;;;5136156;27;20533;-69
2021/05/18 13:00:08;;;;;;;57.07;1.97;;;26.00;1.00;;;;;;5135976;27;21013;-69
2021/05/18 13:02:38;;;;;;;56.90;2.00;;;25.50;1.00;;;;;;5135292;27;20476;-66
2021/05/18 13:05:12;;;;;;;56.97;2.00;;;24.30;1.00;;;;;;5135621;27;20589;-66
2021/05/18 13:07:40;;;;;;;57.17;1.90;;;22.70;1.00;;;;;;5135899;27;20447;-67
2021/05/18 13:10:19;;;;;;;57.03;1.90;;;22.50;1.00;;;;;;5135704;27;20537;-67
2021/05/18 13:12:46;;;;;;;57.07;1.90;;;23.30;1.00;;;;;;5135005;27;20472;-66
2021/05/18 13:15:19;;;;;;;56.67;1.90;;;23.90;1.00;;;;;;5135658;27;20719;-67
2021/05/18 13:17:53;;;;;;;56.53;2.10;;;24.10;1.00;;;;;;5135796;27;20542;-68
2021/05/18 13:20:21;;;;;;;56.83;1.90;;;24.20;1.00;;;;;;5135545;27;20446;-66
2021/05/18 13:22:52;;;;;;;56.57;1.90;;;24.20;1.00;;;;;;5135050;27;20496;-67
2021/05/18 13:28:04;;;;;;;56.80;1.90;;;23.70;1.00;;;;;;5135779;27;20439;-66
2021/05/18 13:30:33;;;;;;;56.20;2.20;;;23.50;1.00;;;;;;5135463;27;20543;-67
2021/05/18 13:33:00;;;;;;;56.97;2.10;;;23.20;1.00;;;;;;5134783;27;20885;-67
2021/05/18 13:35:30;;;;;;;56.07;2.03;;;22.60;1.00;;;;;;5134956;27;20441;-69
2021/05/18 13:37:57;;;;;;;56.97;2.00;;;22.10;1.00;;;;;;5135273;27;20444;-66
2021/05/18 13:40:24;;;;;;;57.17;2.30;;;21.50;1.00;;;;;;5135431;27;20541;-67
2021/05/18 13:42:52;;;;;;;56.87;2.20;;;20.50;1.00;;;;;;5134641;27;20989;-67
2021/05/18 13:45:20;;;;;;;56.67;2.00;;;19.80;1.00;;;;;;5134973;27;20513;-67
2021/05/18 13:47:49;;;;;;;57.07;2.10;;;20.00;1.00;;;;;;5135341;27;20457;-68
2021/05/18 13:50:16;;;;;;;56.87;2.07;;;20.20;1.00;;;;;;5134884;27;20457;-67
2021/05/18 13:52:43;;;;;;;56.77;2.20;;;20.30;1.00;;;;;;5134129;27;20552;-69
2021/05/18 13:55:10;;;;;;;56.57;1.93;;;20.50;1.00;;;;;;5134930;27;20446;-67
2021/05/18 13:57:37;;;;;;;57.00;2.20;;;20.30;1.00;;;;;;5135298;27;20437;-68
2021/05/18 14:00:08;;;;;;;57.70;2.20;;;19.60;1.00;;;;;;5134887;27;20455;-66
2021/05/18 14:02:36;;;;;;;57.10;2.20;;;19.10;1.00;;;;;;5134523;27;20929;-68
2021/05/18 14:05:03;;;;;;;57.10;2.13;;;18.80;1.00;;;;;;5134517;27;20492;-67
2021/05/18 14:08:03;;;;;;;57.00;2.10;;;19.00;1.00;;;;;;5135128;27;20448;-66
2021/05/18 14:10:30;;;;;;;56.90;2.10;;;19.00;1.00;;;;;;5134487;27;20436;-67
2021/05/18 14:12:56;;;;;;;56.83;2.10;;;18.70;1.00;;;;;;5134150;27;20545;-67
2021/05/18 14:15:22;;;;;;;57.00;2.10;;;18.30;1.00;;;;;;5134250;27;20440;-66
2021/05/18 14:17:49;;;;;;;57.20;2.13;;;16.80;1.00;;;;;;5134805;27;21125;-66
2021/05/18 14:20:15;;;;;;;57.47;2.30;;;16.80;1.00;;;;;;5134507;27;20479;-67
2021/05/18 14:22:41;;;;;;;57.37;2.23;;;16.00;1.00;;;;;;5134241;27;20553;-67
2021/05/18 14:25:10;;;;;;;57.27;2.40;;;15.00;1.00;;;;;;5134121;27;20567;-69
2021/05/18 14:27:37;;;;;;;57.40;2.20;;;14.00;1.00;;;;;;5134204;27;20963;-71
2021/05/18 14:30:06;;;;;;;57.27;2.40;;;13.20;1.00;;;;;;5134188;27;20540;-70
2021/05/18 14:32:32;;;;;;;57.43;2.17;;;12.60;1.00;;;;;;5133367;27;20563;-70
2021/05/18 14:34:59;;;;;;;58.20;2.70;;;12.10;1.00;;;;;;5133804;27;20472;-69
2021/05/18 14:37:25;;;;;;;57.37;2.30;;;11.80;1.00;;;;;;5134138;27;20476;-69
2021/05/18 14:39:59;;;;;;;57.67;2.40;;;11.70;1.00;;;;;;5134077;27;20449;-69
2021/05/18 14:45:13;;;;;;;57.60;2.50;;;12.40;1.00;;;;;;5133718;27;20479;-69
2021/05/18 14:47:46;;;;;;;57.07;2.23;;;13.30;1.00;;;;;;5134170;27;20445;-68
2021/05/18 14:55:41;;;;;;;56.93;2.47;;;16.70;1.00;;;;;;5133555;27;20422;-68
2021/05/18 14:58:08;;;;;;;57.27;2.27;;;17.60;1.00;;;;;;5133631;27;20895;-69
2021/05/18 15:00:38;;;;;;;57.17;2.20;;;18.40;1.00;;;;;;5133486;27;20476;-67
2021/05/18 15:03:05;;;;;;;56.50;2.20;;;19.30;1.00;;;;;;5132181;27;20593;-69
2021/05/18 15:05:31;;;;;;;57.33;2.30;;;20.10;1.00;;;;;;5132998;27;20517;-67
2021/05/18 15:07:57;;;;;;;57.00;2.10;;;20.30;1.00;;;;;;5134107;27;20492;-68
2021/05/18 15:10:24;;;;;;;56.87;2.00;;;20.40;1.00;;;;;;5133394;27;20449;-67
2021/05/18 15:12:50;;;;;;;56.97;2.00;;;20.30;1.00;;;;;;5133094;27;20459;-67
2021/05/18 15:15:17;;;;;;;56.73;2.03;;;19.90;1.00;;;;;;5133097;27;20477;-68
2021/05/18 15:17:44;;;;;;;57.10;2.10;;;19.70;1.00;;;;;;5133029;27;20447;-67
2021/05/18 15:20:12;;;;;;;56.87;2.07;;;19.90;1.00;;;;;;5133238;27;20450;-68
2021/05/18 15:22:39;;;;;;;56.67;2.10;;;20.10;1.00;;;;;;5132861;27;20466;-68
2021/05/18 15:25:06;;;;;;;56.87;2.10;;;20.00;1.00;;;;;;5133857;27;20504;-69
2021/05/18 15:27:33;;;;;;;56.90;2.10;;;19.40;1.00;;;;;;5133091;27;20877;-68
2021/05/18 15:29:59;;;;;;;57.10;2.10;;;18.80;1.00;;;;;;5133100;27;20448;-68
2021/05/18 15:32:26;;;;;;;56.83;2.10;;;19.10;1.00;;;;;;5132370;27;21231;-68
2021/05/18 15:34:53;;;;;;;56.80;2.00;;;19.10;1.00;;;;;;5132754;27;21150;-69
2021/05/18 15:37:19;;;;;;;56.30;2.20;;;18.60;1.00;;;;;;5132890;27;21040;-69
2021/05/18 15:39:45;;;;;;;56.90;2.10;;;18.10;1.00;;;;;;5132577;27;20989;-67
2021/05/18 15:42:12;;;;;;;57.00;2.20;;;18.30;1.00;;;;;;5132588;27;20832;-66
2021/05/18 15:44:38;;;;;;;56.90;1.97;;;18.90;1.00;;;;;;5132569;27;20592;-66
2021/05/18 15:47:05;;;;;;;56.97;2.10;;;19.20;1.00;;;;;;5132575;27;20445;-66
2021/05/18 15:49:32;;;;;;;57.00;2.00;;;19.70;1.00;;;;;;5132777;27;20545;-67
2021/05/18 15:51:59;;;;;;;57.33;2.67;;;20.00;1.00;;;;;;5132245;27;20466;-67
2021/05/18 15:54:26;;;;;;;56.67;2.00;;;20.00;1.00;;;;;;5132387;27;20443;-68
2021/05/18 15:56:53;;;;;;;56.90;1.93;;;20.00;1.00;;;;;;5132610;27;20889;-67
2021/05/18 15:59:19;;;;;;;56.80;1.90;;;20.00;1.00;;;;;;5132480;27;20450;-66
2021/05/18 16:01:45;;;;;;;56.60;2.07;;;19.80;1.00;;;;;;5132589;27;20567;-67
2021/05/18 16:04:12;;;;;;;56.93;2.10;;;19.30;1.00;;;;;;5131904;27;20567;-69
2021/05/18 16:06:42;;;;;;;57.07;2.00;;;18.70;1.00;;;;;;5132619;27;20444;-68
2021/05/18 16:09:09;;;;;;;60.38;2.00;;;18.10;1.00;;;;;;5129031;27;20445;-67
2021/05/18 16:11:35;;;;;;;56.57;2.17;;;17.50;1.00;;;;;;5132257;27;20226;-67
2021/05/18 16:14:02;;;;;;;56.83;2.10;;;17.00;1.00;;;;;;5130856;27;20548;-67
2021/05/18 16:16:29;;;;;;;56.97;2.20;;;16.40;1.00;;;;;;5132593;27;20546;-67
2021/05/18 16:18:56;;;;;;;57.30;2.47;;;15.80;1.00;;;;;;5132738;27;20452;-68
2021/05/18 16:21:23;;;;;;;56.83;2.10;;;15.30;1.00;;;;;;5132457;27;20463;-68
2021/05/18 16:23:53;;;;;;;56.87;2.20;;;14.80;1.00;;;;;;5131836;27;20531;-67
2021/05/18 16:26:21;;;;;;;57.23;2.33;;;14.40;1.00;;;;;;5132594;27;20459;-68
2021/05/18 16:28:48;;;;;;;57.20;2.13;;;14.00;1.00;;;;;;5132215;27;20536;-67
2021/05/18 16:31:15;;;;;;;57.50;2.40;;;13.80;1.00;;;;;;5132474;27;20716;-67
2021/05/18 16:33:42;;;;;;;57.07;2.20;;;13.60;1.00;;;;;;5131691;27;20449;-68
2021/05/18 16:36:09;;;;;;;57.13;2.17;;;13.40;1.00;;;;;;5132161;27;20527;-67
2021/05/18 16:38:37;;;;;;;57.40;2.40;;;13.40;1.00;;;;;;5132098;27;20503;-67
2021/05/18 16:41:04;;;;;;;57.17;2.40;;;13.30;1.00;;;;;;5131923;27;20516;-67
2021/05/18 16:43:31;;;;;;;56.97;2.30;;;13.10;1.00;;;;;;5131870;27;20885;-68
2021/05/18 16:45:58;;;;;;;57.47;2.43;;;13.10;1.00;;;;;;5132133;27;20917;-67
2021/05/18 16:48:26;;;;;;;57.07;2.30;;;13.30;1.00;;;;;;5132433;27;20531;-67
2021/05/18 16:50:53;;;;;;;57.20;2.30;;;13.40;1.00;;;;;;5132017;27;20836;-69
2021/05/18 16:53:19;;;;;;;57.00;2.40;;;13.50;1.00;;;;;;5131766;27;20483;-67
2021/05/18 16:55:46;;;;;;;56.97;2.30;;;13.40;1.00;;;;;;5131679;27;20480;-67
2021/05/18 16:58:13;;;;;;;56.80;2.40;;;13.30;1.00;;;;;;5132117;27;20501;-68
2021/05/18 17:00:40;;;;;;;57.17;2.20;;;13.20;1.00;;;;;;5131854;27;20487;-67
2021/05/18 17:03:06;;;;;;;57.27;2.30;;;13.00;1.00;;;;;;5131621;27;20444;-67
2021/05/18 17:05:33;;;;;;;57.03;2.17;;;12.80;1.00;;;;;;5131646;27;20571;-68
2021/05/18 17:08:03;;;;;;;57.07;2.20;;;12.60;1.00;;;;;;5131850;27;20907;-67
2021/05/18 17:10:31;;;;;;;56.97;2.27;;;12.50;1.00;;;;;;5128084;27;20547;-67
2021/05/18 17:12:58;;;;;;;57.07;2.30;;;12.40;1.00;;;;;;5115365;28;20468;-67
2021/05/18 17:15:27;;;;;;;56.97;2.20;;;12.30;1.00;;;;;;5131918;27;20480;-67
2021/05/18 17:17:54;;;;;;;60.50;2.97;;;12.20;1.00;;;;;;5131908;27;20487;-67
2021/05/18 17:20:21;;;;;;;57.40;2.40;;;12.30;1.00;;;;;;5131695;27;20480;-67
2021/05/18 17:22:48;;;;;;;57.40;2.40;;;12.40;1.00;;;;;;5131303;27;20526;-68
2021/05/18 17:25:16;;;;;;;57.13;2.40;;;12.40;1.00;;;;;;5131864;27;20575;-67
2021/05/18 17:27:42;;;;;;;57.20;2.37;;;12.40;1.00;;;;;;5135321;27;20531;-68
2021/05/18 17:30:12;;;;;;;57.13;2.43;;;12.40;1.00;;;;;;5135082;27;20448;-66